Alpine, Oregon
Current Conditions -  °F | °C
As of 11:55 PM on Thursday 30 Oct 2014 (Local Time) from KCVO Reporting Station
Overcast Overcast  
Wind Chill: 15°   Ceiling: 9000
Heat Index: 15°   Visibility: 6mi
Dew Point: 13°   Wind: 5mph
Humidity: 88%   Direction: 160°SSE
Pressure: 29.77"   Gusts: NA
Location:  44.3398°N, 123.353°W
Report Text: KCVO 310655Z AUTO 16004KT 6SM OVC090 15/13 A2977 RMK AO1 P0004
Loading
Personal Weather Stations






























Interactive Weather Map
Tropical Storm Tracking
New forecast layout! Learn more

10-Day Weather Forecast

Advertisements
Track Severe Weather on mobile